createdAt,value
2019-05-25T00:02:07.546Z,8.66
2019-05-25T00:04:36.425Z,8.61
2019-05-25T00:07:05.384Z,8.60
2019-05-25T00:09:34.351Z,8.60
2019-05-25T00:12:03.187Z,8.48
2019-05-25T00:14:32.265Z,8.55
2019-05-25T00:17:01.147Z,8.54
2019-05-25T00:19:30.106Z,8.48
2019-05-25T00:21:58.952Z,8.57
2019-05-25T00:24:27.823Z,8.49
2019-05-25T00:26:56.745Z,8.45
2019-05-25T00:29:25.668Z,8.46
2019-05-25T00:31:54.548Z,8.42
2019-05-25T00:34:23.425Z,8.48
2019-05-25T00:36:52.349Z,8.57
2019-05-25T00:39:21.266Z,8.59
2019-05-25T00:41:50.226Z,8.53
2019-05-25T00:44:19.126Z,8.59
2019-05-25T00:46:47.944Z,8.61
2019-05-25T00:49:16.825Z,8.53
2019-05-25T00:51:45.641Z,8.44
2019-05-25T00:54:27.152Z,8.52
2019-05-25T00:56:45.068Z,8.44
2019-05-25T00:59:13.905Z,8.45
2019-05-25T01:01:42.794Z,8.53
2019-05-25T01:04:11.787Z,8.43
2019-05-25T01:06:40.625Z,8.35
2019-05-25T01:09:09.665Z,8.33
2019-05-25T01:11:38.533Z,8.22
2019-05-25T01:14:07.425Z,8.21
2019-05-25T01:16:36.346Z,8.19
2019-05-25T01:19:05.385Z,8.26
2019-05-25T01:21:34.305Z,8.41
2019-05-25T01:24:03.151Z,8.28
2019-05-25T01:26:32.230Z,8.32
2019-05-25T01:29:01.196Z,8.17
2019-05-25T01:31:30.148Z,8.12
2019-05-25T01:33:59.068Z,8.12
2019-05-25T01:36:27.985Z,8.16
2019-05-25T01:38:57.027Z,8.14
2019-05-25T01:41:25.945Z,8.09
2019-05-25T01:43:54.786Z,8.08
2019-05-25T01:46:23.587Z,7.81
2019-05-25T01:48:52.465Z,7.68
2019-05-25T01:51:21.345Z,7.78
2019-05-25T01:53:50.225Z,7.63
2019-05-25T01:56:19.145Z,7.63
2019-05-25T01:58:47.985Z,7.60
2019-05-25T02:01:16.865Z,7.70
2019-05-25T02:03:45.705Z,7.84
2019-05-25T02:06:14.545Z,7.87
2019-05-25T02:08:43.531Z,7.76
2019-05-25T02:11:12.425Z,7.74
2019-05-25T02:13:41.305Z,7.72
2019-05-25T02:16:10.266Z,7.83
2019-05-25T02:18:39.076Z,7.90
2019-05-25T02:21:09.346Z,7.81
2019-05-25T02:23:38.229Z,7.80
2019-05-25T02:26:07.146Z,7.94
2019-05-25T02:28:36.070Z,7.82
2019-05-25T02:31:05.070Z,7.73
2019-05-25T02:33:33.987Z,7.73
2019-05-25T02:36:02.866Z,7.70
2019-05-25T02:38:31.746Z,7.63
2019-05-25T02:41:01.025Z,7.70
2019-05-25T02:43:29.948Z,7.82
2019-05-25T02:45:58.870Z,7.79
2019-05-25T02:48:27.746Z,7.79
2019-05-25T02:50:56.707Z,7.73
2019-05-25T02:53:25.545Z,7.59
2019-05-25T02:55:54.466Z,7.41
2019-05-25T02:58:23.386Z,7.46
2019-05-25T03:00:52.306Z,7.36
2019-05-25T03:03:21.268Z,7.50
2019-05-25T03:05:50.305Z,7.62
2019-05-25T03:08:19.306Z,7.52
2019-05-25T03:10:49.665Z,7.49
2019-05-25T03:13:19.386Z,7.56
2019-05-25T03:15:48.320Z,7.57
2019-05-25T03:18:17.266Z,7.66
2019-05-25T03:20:46.224Z,7.84
2019-05-25T03:23:15.145Z,7.82
2019-05-25T03:25:49.596Z,7.83
2019-05-25T03:28:14.708Z,8.02
2019-05-25T03:30:43.627Z,8.04
2019-05-25T03:33:12.506Z,8.10
2019-05-25T03:35:41.389Z,8.24
2019-05-25T03:38:10.349Z,8.41
2019-05-25T03:40:39.209Z,8.41
2019-05-25T03:43:08.065Z,8.53
2019-05-25T03:45:36.946Z,8.65
2019-05-25T03:48:06.037Z,8.58
2019-05-25T03:50:34.989Z,8.66
2019-05-25T03:53:03.872Z,8.65
2019-05-25T03:55:32.876Z,8.77
2019-05-25T03:58:01.826Z,8.84
2019-05-25T04:00:38.186Z,8.86
2019-05-25T04:03:07.626Z,8.85
2019-05-25T04:05:36.435Z,8.88
2019-05-25T04:08:05.546Z,9.12
2019-05-25T04:10:34.508Z,9.18
2019-05-25T04:13:03.467Z,9.20
2019-05-25T04:15:32.346Z,9.24
2019-05-25T04:18:01.226Z,9.30
2019-05-25T04:20:30.106Z,9.42
2019-05-25T04:22:58.947Z,9.47
2019-05-25T04:25:27.985Z,9.55
2019-05-25T04:27:56.905Z,9.69
2019-05-25T04:30:26.026Z,9.77
2019-05-25T04:32:54.948Z,9.82
2019-05-25T04:35:23.906Z,9.94
2019-05-25T04:37:52.788Z,9.98
2019-05-25T04:40:23.088Z,10.06
2019-05-25T04:42:52.307Z,10.10
2019-05-25T04:45:21.294Z,10.12
2019-05-25T04:47:50.345Z,10.10
2019-05-25T04:50:19.346Z,10.16
2019-05-25T04:52:48.190Z,10.25
2019-05-25T04:55:17.268Z,10.34
2019-05-25T04:57:46.305Z,10.47
2019-05-25T05:00:16.624Z,10.59
2019-05-25T05:02:45.546Z,10.85
2019-05-25T05:05:14.665Z,10.96
2019-05-25T05:07:43.546Z,11.18
2019-05-25T05:10:12.665Z,11.28
2019-05-25T05:12:41.505Z,11.43
2019-05-25T05:15:11.116Z,11.60
2019-05-25T05:17:40.143Z,11.71
2019-05-25T05:20:09.988Z,11.86
2019-05-25T05:22:38.947Z,11.87
2019-05-25T05:25:08.579Z,11.94
2019-05-25T05:27:38.188Z,12.06
2019-05-25T05:30:09.344Z,12.17
2019-05-25T05:32:38.258Z,12.39
2019-05-25T05:35:08.271Z,12.52
2019-05-25T05:37:37.906Z,12.63
2019-05-25T05:40:10.344Z,12.79
2019-05-25T05:42:40.024Z,12.91
2019-05-25T05:45:09.589Z,13.28
2019-05-25T05:47:39.626Z,13.40
2019-05-25T05:50:10.345Z,13.50
2019-05-25T05:52:39.954Z,13.68
2019-05-25T05:55:11.238Z,13.87
2019-05-25T05:57:40.106Z,14.07
2019-05-25T06:00:11.064Z,14.13
2019-05-25T06:02:39.989Z,14.38
2019-05-25T06:05:09.705Z,14.46
2019-05-25T06:07:38.624Z,14.68
2019-05-25T06:10:08.706Z,14.70
2019-05-25T06:12:37.585Z,14.90
2019-05-25T06:15:07.432Z,14.94
2019-05-25T06:17:36.433Z,14.94
2019-05-25T06:20:07.308Z,15.05
2019-05-25T06:22:36.435Z,15.20
2019-05-25T06:25:07.347Z,15.22
2019-05-25T06:27:36.225Z,15.26
2019-05-25T06:30:06.908Z,15.36
2019-05-25T06:32:35.706Z,15.47
2019-05-25T06:35:06.466Z,15.57
2019-05-25T06:37:35.306Z,15.63
2019-05-25T06:40:05.904Z,15.75
2019-05-25T06:42:34.758Z,15.81
2019-05-25T06:45:05.306Z,16.12
2019-05-25T06:47:34.143Z,16.28
2019-05-25T06:50:03.304Z,16.46
2019-05-25T06:52:32.107Z,16.42
2019-05-25T06:55:00.945Z,16.63
2019-05-25T06:57:42.100Z,16.87
2019-05-25T07:00:00.467Z,16.97
2019-05-25T07:02:29.344Z,17.11
2019-05-25T07:04:58.147Z,17.19
2019-05-25T07:07:27.024Z,17.34
2019-05-25T07:09:55.865Z,17.51
2019-05-25T07:12:24.701Z,17.64
2019-05-25T07:14:53.504Z,17.63
2019-05-25T07:17:22.388Z,17.86
2019-05-25T07:19:51.303Z,18.00
2019-05-25T07:22:20.104Z,18.22
2019-05-25T07:24:49.344Z,18.26
2019-05-25T07:27:18.193Z,18.46
2019-05-25T07:29:47.104Z,18.71
2019-05-25T07:32:15.984Z,18.84
2019-05-25T07:34:44.865Z,19.04
2019-05-25T07:37:13.745Z,19.28
2019-05-25T07:39:42.750Z,19.44
2019-05-25T07:42:11.626Z,19.62
2019-05-25T07:44:40.544Z,19.67
2019-05-25T07:47:09.465Z,19.68
2019-05-25T07:49:38.308Z,19.67
2019-05-25T07:52:07.144Z,19.91
2019-05-25T07:54:35.985Z,20.19
2019-05-25T07:57:04.983Z,20.30
2019-05-25T07:59:33.826Z,20.55
2019-05-25T08:02:02.784Z,20.70
2019-05-25T08:04:31.624Z,20.78
2019-05-25T08:07:00.424Z,21.00
2019-05-25T08:09:29.265Z,20.74
2019-05-25T08:11:58.059Z,20.95
2019-05-25T08:14:26.957Z,21.00
2019-05-25T08:16:55.863Z,21.16
2019-05-25T08:19:24.745Z,21.03
2019-05-25T08:21:53.626Z,21.19
2019-05-25T08:24:22.507Z,21.30
2019-05-25T08:26:51.344Z,21.45
2019-05-25T08:29:20.264Z,21.75
2019-05-25T08:31:49.103Z,21.76
2019-05-25T08:34:17.908Z,21.92
2019-05-25T08:36:46.787Z,22.19
2019-05-25T08:39:15.704Z,21.99
2019-05-25T08:41:45.588Z,21.89
2019-05-25T08:44:14.643Z,21.68
2019-05-25T08:46:43.506Z,22.01
2019-05-25T08:49:12.381Z,22.39
2019-05-25T08:51:41.706Z,22.36
2019-05-25T08:54:10.624Z,22.36
2019-05-25T08:56:39.538Z,21.76
2019-05-25T08:59:08.385Z,21.89
2019-05-25T09:01:37.225Z,22.10
2019-05-25T09:04:06.104Z,21.90
2019-05-25T09:06:35.824Z,21.82
2019-05-25T09:09:06.584Z,22.08
2019-05-25T09:11:35.425Z,22.51
2019-05-25T09:14:04.327Z,22.81
2019-05-25T09:16:33.146Z,23.12
2019-05-25T09:19:02.040Z,23.12
2019-05-25T09:21:30.995Z,22.54
2019-05-25T09:23:59.906Z,22.51
2019-05-25T09:26:28.786Z,22.86
2019-05-25T09:29:04.552Z,22.67
2019-05-25T09:31:29.267Z,22.47
2019-05-25T09:33:58.146Z,22.92
2019-05-25T09:36:27.066Z,23.19
2019-05-25T09:38:55.905Z,23.11
2019-05-25T09:41:24.850Z,23.29
2019-05-25T09:43:53.785Z,23.36
2019-05-25T09:46:22.666Z,23.40
2019-05-25T09:48:51.586Z,23.30
2019-05-25T09:51:20.507Z,23.54
2019-05-25T09:53:49.386Z,24.05
2019-05-25T09:56:18.186Z,24.42
2019-05-25T09:58:47.106Z,24.55
2019-05-25T10:01:16.025Z,24.77
2019-05-25T10:03:44.905Z,24.44
2019-05-25T10:06:13.946Z,24.36
2019-05-25T10:08:42.825Z,24.07
2019-05-25T10:11:11.785Z,23.99
2019-05-25T10:13:40.626Z,23.83
2019-05-25T10:16:09.572Z,23.81
2019-05-25T10:18:38.465Z,23.59
2019-05-25T10:21:07.424Z,23.44
2019-05-25T10:23:36.345Z,24.20
2019-05-25T10:26:07.069Z,24.53
2019-05-25T10:28:37.634Z,24.92
2019-05-25T10:31:06.673Z,25.35
2019-05-25T10:33:35.546Z,25.59
2019-05-25T10:36:04.769Z,25.18
2019-05-25T10:38:33.627Z,25.15
2019-05-25T10:41:02.592Z,24.92
2019-05-25T10:43:31.464Z,24.35
2019-05-25T10:46:00.488Z,25.06
2019-05-25T10:48:29.306Z,25.59
2019-05-25T10:50:58.145Z,24.97
2019-05-25T10:53:27.083Z,24.81
2019-05-25T10:55:55.984Z,25.07
2019-05-25T10:58:24.828Z,25.56
2019-05-25T11:00:53.705Z,25.59
2019-05-25T11:03:22.585Z,25.23
2019-05-25T11:05:51.508Z,25.57
2019-05-25T11:08:20.386Z,25.31
2019-05-25T11:10:49.226Z,24.91
2019-05-25T11:13:18.106Z,25.09
2019-05-25T11:15:46.946Z,24.59
2019-05-25T11:18:15.865Z,25.26
2019-05-25T11:20:44.786Z,25.71
2019-05-25T11:23:13.670Z,26.05
2019-05-25T11:25:42.585Z,26.55
2019-05-25T11:28:11.507Z,26.82
2019-05-25T11:30:40.505Z,26.48
2019-05-25T11:33:09.515Z,25.84
2019-05-25T11:35:38.422Z,25.30
2019-05-25T11:38:07.264Z,25.74
2019-05-25T11:40:36.117Z,26.12
2019-05-25T11:43:04.985Z,25.91
2019-05-25T11:45:33.823Z,25.84
2019-05-25T11:48:02.826Z,26.09
2019-05-25T11:50:31.705Z,26.16
2019-05-25T11:53:00.544Z,25.92
2019-05-25T11:55:29.466Z,26.27
2019-05-25T11:57:58.271Z,25.62
2019-05-25T12:00:27.771Z,25.72
2019-05-25T12:02:56.624Z,26.14
2019-05-25T12:05:25.429Z,26.56
2019-05-25T12:07:54.344Z,26.31
2019-05-25T12:10:23.140Z,25.52
2019-05-25T12:12:51.987Z,24.96
2019-05-25T12:15:21.187Z,24.52
2019-05-25T12:17:50.149Z,24.11
2019-05-25T12:20:19.064Z,23.90
2019-05-25T12:22:47.904Z,24.07
2019-05-25T12:25:16.984Z,24.32
2019-05-25T12:27:49.040Z,24.29
2019-05-25T12:30:17.105Z,24.38
2019-05-25T12:32:45.945Z,24.98
2019-05-25T12:35:15.064Z,25.06
2019-05-25T12:37:43.907Z,24.76
2019-05-25T12:40:14.224Z,24.58
2019-05-25T12:42:45.822Z,24.73
2019-05-25T12:45:13.826Z,24.95
2019-05-25T12:47:42.704Z,24.99
2019-05-25T12:50:12.025Z,25.09
2019-05-25T12:52:40.944Z,25.08
2019-05-25T12:55:09.944Z,25.59
2019-05-25T12:57:38.828Z,26.38
2019-05-25T13:00:15.384Z,26.31
2019-05-25T13:02:38.864Z,25.92
2019-05-25T13:05:07.824Z,25.65
2019-05-25T13:07:36.665Z,24.96
2019-05-25T13:10:08.824Z,24.15
2019-05-25T13:12:37.709Z,23.98
2019-05-25T13:15:08.047Z,23.69
2019-05-25T13:17:36.990Z,23.70
2019-05-25T13:20:09.025Z,23.82
2019-05-25T13:22:38.024Z,23.76
2019-05-25T13:25:08.642Z,23.53
2019-05-25T13:27:37.584Z,23.19
2019-05-25T13:30:08.187Z,22.73
2019-05-25T13:32:37.265Z,22.48
2019-05-25T13:35:07.386Z,22.37
2019-05-25T13:37:36.304Z,22.44
2019-05-25T13:40:06.625Z,22.43
2019-05-25T13:42:35.586Z,22.27
2019-05-25T13:45:06.773Z,22.30
2019-05-25T13:47:35.747Z,22.15
2019-05-25T13:50:07.861Z,21.92
2019-05-25T13:52:36.800Z,21.78
2019-05-25T13:55:06.771Z,21.50
2019-05-25T13:57:35.708Z,21.40
2019-05-25T14:00:06.385Z,21.44
2019-05-25T14:02:35.505Z,21.43
2019-05-25T14:05:06.112Z,21.29
2019-05-25T14:07:35.025Z,21.30
2019-05-25T14:10:05.304Z,21.15
2019-05-25T14:12:34.305Z,21.18
2019-05-25T14:15:03.493Z,21.29
2019-05-25T14:17:32.385Z,21.27
2019-05-25T14:20:01.277Z,21.50
2019-05-25T14:22:30.586Z,21.32
2019-05-25T14:24:59.706Z,21.45
2019-05-25T14:27:28.623Z,21.81
2019-05-25T14:29:57.506Z,21.89
2019-05-25T14:32:26.385Z,22.05
2019-05-25T14:34:55.202Z,22.08
2019-05-25T14:37:24.064Z,22.06
2019-05-25T14:39:52.966Z,22.09
2019-05-25T14:42:21.947Z,22.15
2019-05-25T14:44:50.787Z,22.12
2019-05-25T14:47:19.624Z,21.78
2019-05-25T14:49:48.504Z,21.51
2019-05-25T14:52:17.384Z,21.44
2019-05-25T14:54:46.303Z,21.47
2019-05-25T14:57:15.107Z,21.55
2019-05-25T14:59:44.064Z,21.14
2019-05-25T15:02:12.945Z,21.00
2019-05-25T15:04:41.865Z,20.76
2019-05-25T15:07:10.885Z,20.63
2019-05-25T15:09:39.743Z,20.77
2019-05-25T15:12:08.624Z,20.96
2019-05-25T15:14:37.470Z,21.48
2019-05-25T15:17:06.427Z,21.66
2019-05-25T15:19:35.464Z,21.91
2019-05-25T15:22:04.549Z,22.39
2019-05-25T15:24:33.424Z,22.66
2019-05-25T15:27:02.424Z,22.56
2019-05-25T15:29:31.504Z,22.77
2019-05-25T15:32:00.385Z,23.03
2019-05-25T15:34:29.265Z,22.66
2019-05-25T15:36:58.263Z,22.57
2019-05-25T15:39:27.104Z,22.70
2019-05-25T15:41:56.105Z,22.36
2019-05-25T15:44:24.984Z,22.31
2019-05-25T15:46:53.988Z,21.82
2019-05-25T15:49:32.458Z,21.99
2019-05-25T15:51:53.545Z,22.18
2019-05-25T15:54:22.386Z,22.43
2019-05-25T15:56:51.187Z,22.23
2019-05-25T15:59:23.503Z,21.56
2019-05-25T16:01:50.756Z,21.22
2019-05-25T16:04:19.668Z,20.99
2019-05-25T16:06:48.627Z,20.85
2019-05-25T16:09:17.629Z,20.76
2019-05-25T16:11:46.545Z,20.90
2019-05-25T16:14:15.507Z,21.16
2019-05-25T16:16:44.584Z,21.34
2019-05-25T16:19:13.463Z,21.33
2019-05-25T16:21:42.347Z,21.44
2019-05-25T16:24:11.184Z,21.57
2019-05-25T16:26:45.901Z,21.57
2019-05-25T16:29:10.665Z,21.55
2019-05-25T16:31:39.663Z,21.51
2019-05-25T16:34:08.545Z,21.40
2019-05-25T16:36:37.464Z,21.41
2019-05-25T16:39:08.504Z,21.31
2019-05-25T16:41:37.384Z,21.17
2019-05-25T16:44:06.273Z,21.02
2019-05-25T16:46:35.104Z,20.87
2019-05-25T16:49:04.028Z,20.91
2019-05-25T16:51:33.064Z,20.77
2019-05-25T16:54:02.036Z,20.76
2019-05-25T16:56:30.945Z,20.83
2019-05-25T16:58:59.905Z,20.85
2019-05-25T17:01:46.544Z,20.90
2019-05-25T17:03:59.665Z,21.10
2019-05-25T17:06:28.586Z,21.40
2019-05-25T17:08:57.464Z,21.43
2019-05-25T17:11:26.383Z,21.36
2019-05-25T17:13:55.265Z,21.29
2019-05-25T17:16:24.146Z,21.09
2019-05-25T17:18:53.067Z,21.03
2019-05-25T17:21:21.987Z,20.92
2019-05-25T17:23:50.824Z,20.82
2019-05-25T17:26:19.705Z,20.92
2019-05-25T17:28:48.707Z,20.96
2019-05-25T17:31:17.626Z,20.91
2019-05-25T17:33:47.027Z,21.00
2019-05-25T17:36:15.919Z,20.82
2019-05-25T17:38:44.827Z,20.90
2019-05-25T17:41:13.705Z,20.77
2019-05-25T17:43:42.664Z,20.90
2019-05-25T17:46:11.624Z,20.90
2019-05-25T17:48:40.504Z,20.91
2019-05-25T17:51:09.424Z,20.85
2019-05-25T17:53:38.345Z,20.74
2019-05-25T17:56:07.386Z,20.42
2019-05-25T17:58:36.284Z,20.28
2019-05-25T18:01:06.187Z,20.25
2019-05-25T18:03:35.383Z,20.07
2019-05-25T18:06:05.506Z,19.80
2019-05-25T18:08:35.115Z,19.62
2019-05-25T18:11:04.903Z,19.62
2019-05-25T18:13:34.275Z,19.48
2019-05-25T18:16:03.708Z,19.28
2019-05-25T18:18:33.546Z,19.25
2019-05-25T18:21:03.147Z,19.03
2019-05-25T18:23:32.829Z,18.86
2019-05-25T18:26:02.265Z,18.89
2019-05-25T18:28:31.946Z,18.89
2019-05-25T18:31:01.345Z,18.61
2019-05-25T18:33:31.145Z,18.31
2019-05-25T18:36:00.781Z,18.31
2019-05-25T18:38:30.385Z,18.16
2019-05-25T18:41:00.075Z,18.04
2019-05-25T18:43:29.586Z,17.92
2019-05-25T18:45:59.093Z,17.88
2019-05-25T18:48:28.585Z,17.66
2019-05-25T18:50:58.425Z,17.54
2019-05-25T18:53:27.905Z,17.66
2019-05-25T18:55:57.413Z,17.64
2019-05-25T18:58:27.320Z,17.67
2019-05-25T19:00:57.343Z,17.59
2019-05-25T19:03:26.864Z,17.36
2019-05-25T19:05:56.783Z,17.45
2019-05-25T19:08:26.363Z,17.36
2019-05-25T19:10:55.866Z,17.35
2019-05-25T19:13:25.386Z,17.28
2019-05-25T19:15:54.671Z,17.24
2019-05-25T19:18:24.306Z,16.98
2019-05-25T19:20:54.142Z,16.96
2019-05-25T19:23:23.707Z,17.01
2019-05-25T19:25:53.196Z,17.07
2019-05-25T19:28:22.833Z,17.15
2019-05-25T19:30:52.327Z,17.19
2019-05-25T19:33:22.026Z,17.14
2019-05-25T19:35:54.143Z,17.11
2019-05-25T19:38:23.185Z,17.14
2019-05-25T19:40:52.705Z,17.19
2019-05-25T19:43:22.185Z,17.08
2019-05-25T19:45:51.717Z,17.03
2019-05-25T19:48:21.427Z,17.00
2019-05-25T19:50:50.942Z,17.17
2019-05-25T19:53:20.425Z,16.93
2019-05-25T19:55:50.345Z,16.86
2019-05-25T19:58:19.745Z,16.89
2019-05-25T20:00:49.334Z,16.59
2019-05-25T20:03:18.866Z,16.71
2019-05-25T20:05:48.666Z,16.42
2019-05-25T20:08:18.430Z,16.38
2019-05-25T20:10:48.054Z,16.31
2019-05-25T20:13:17.664Z,16.20
2019-05-25T20:15:47.186Z,16.11
2019-05-25T20:18:16.705Z,15.93
2019-05-25T20:20:46.306Z,15.86
2019-05-25T20:23:15.704Z,15.68
2019-05-25T20:25:45.430Z,15.72
2019-05-25T20:28:15.013Z,15.62
2019-05-25T20:30:44.507Z,15.36
2019-05-25T20:33:26.398Z,15.08
2019-05-25T20:35:45.268Z,15.07
2019-05-25T20:38:14.546Z,15.15
2019-05-25T20:40:44.043Z,15.02
2019-05-25T20:43:13.465Z,15.15
2019-05-25T20:45:42.748Z,14.88
2019-05-25T20:48:12.396Z,14.92
2019-05-25T20:50:41.979Z,14.92
2019-05-25T20:53:11.504Z,14.91
2019-05-25T20:55:40.985Z,14.89
2019-05-25T20:58:10.376Z,15.00
2019-05-25T21:00:39.585Z,14.71
2019-05-25T21:03:09.505Z,14.73
2019-05-25T21:05:49.652Z,14.71
2019-05-25T21:08:10.263Z,14.69
2019-05-25T21:10:39.866Z,14.44
2019-05-25T21:13:09.346Z,14.53
2019-05-25T21:15:39.066Z,14.36
2019-05-25T21:18:08.469Z,14.30
2019-05-25T21:20:38.068Z,14.32
2019-05-25T21:23:07.705Z,14.29
2019-05-25T21:25:37.706Z,14.12
2019-05-25T21:28:07.224Z,14.05
2019-05-25T21:30:36.706Z,14.08
2019-05-25T21:33:06.226Z,14.05
2019-05-25T21:35:35.947Z,13.91
2019-05-25T21:38:05.544Z,13.94
2019-05-25T21:40:35.434Z,14.04
2019-05-25T21:43:05.339Z,14.13
2019-05-25T21:45:34.745Z,14.10
2019-05-25T21:48:04.650Z,13.95
2019-05-25T21:50:34.065Z,13.80
2019-05-25T21:53:03.462Z,13.76
2019-05-25T21:55:33.187Z,13.61
2019-05-25T21:58:02.906Z,13.45
2019-05-25T22:00:33.945Z,13.41
2019-05-25T22:03:03.525Z,13.27
2019-05-25T22:05:33.464Z,13.18
2019-05-25T22:08:02.847Z,13.12
2019-05-25T22:10:32.448Z,12.72
2019-05-25T22:13:02.265Z,12.78
2019-05-25T22:15:31.865Z,12.82
2019-05-25T22:18:01.385Z,12.62
2019-05-25T22:20:30.976Z,12.54
2019-05-25T22:23:00.507Z,12.53
2019-05-25T22:25:30.191Z,12.50
2019-05-25T22:27:59.825Z,12.60
2019-05-25T22:30:29.304Z,12.52
2019-05-25T22:32:59.026Z,12.49
2019-05-25T22:35:28.425Z,12.57
2019-05-25T22:37:58.016Z,12.52
2019-05-25T22:40:27.425Z,12.30
2019-05-25T22:42:57.144Z,12.49
2019-05-25T22:45:26.821Z,12.55
2019-05-25T22:47:56.552Z,12.57
2019-05-25T22:50:26.066Z,12.47
2019-05-25T22:52:55.666Z,12.37
2019-05-25T22:55:25.068Z,12.41
2019-05-25T22:57:54.586Z,12.33
2019-05-25T23:00:24.271Z,12.26
2019-05-25T23:02:53.785Z,12.14
2019-05-25T23:05:23.104Z,12.25
2019-05-25T23:07:52.585Z,12.36
2019-05-25T23:10:22.425Z,12.28
2019-05-25T23:12:52.145Z,12.44
2019-05-25T23:15:22.025Z,12.37
2019-05-25T23:17:51.625Z,12.21
2019-05-25T23:20:21.346Z,12.19
2019-05-25T23:22:51.065Z,12.26
2019-05-25T23:25:20.745Z,12.15
2019-05-25T23:27:50.385Z,12.16
2019-05-25T23:30:20.265Z,12.13
2019-05-25T23:32:50.070Z,12.45
2019-05-25T23:35:20.025Z,12.36
2019-05-25T23:37:49.706Z,12.51
2019-05-25T23:40:19.504Z,12.52
2019-05-25T23:42:49.025Z,12.65
2019-05-25T23:45:18.625Z,12.48
2019-05-25T23:47:48.234Z,12.54
2019-05-25T23:50:18.455Z,12.52
2019-05-25T23:52:48.278Z,12.38
2019-05-25T23:55:18.694Z,12.12
2019-05-25T23:57:48.186Z,12.11
